createdAt,value
2024-03-07T00:00:18.320Z,16.90
2024-03-07T00:02:50.029Z,19.42
2024-03-07T00:05:18.102Z,19.48
2024-03-07T00:07:44.869Z,17.55
2024-03-07T00:10:12.279Z,20.23
2024-03-07T00:12:41.794Z,17.40
2024-03-07T00:15:10.005Z,17.35
2024-03-07T00:17:36.601Z,20.63
2024-03-07T00:20:05.509Z,17.38
2024-03-07T00:22:32.466Z,21.48
2024-03-07T00:24:58.964Z,22.35
2024-03-07T00:27:27.233Z,18.73
2024-03-07T00:29:54.415Z,13.48
2024-03-07T00:32:21.455Z,12.60
2024-03-07T00:34:48.609Z,15.57
2024-03-07T00:37:16.116Z,19.83
2024-03-07T00:39:42.992Z,18.95
2024-03-07T00:42:10.274Z,25.55
2024-03-07T00:44:37.041Z,18.00
2024-03-07T00:47:04.102Z,22.52
2024-03-07T00:49:31.401Z,18.70
2024-03-07T00:52:00.249Z,15.40
2024-03-07T00:54:27.009Z,22.95
2024-03-07T00:56:54.178Z,19.83
2024-03-07T00:59:21.048Z,24.15
2024-03-07T01:01:47.672Z,21.88
2024-03-07T01:04:14.172Z,19.02
2024-03-07T01:06:42.152Z,13.65
2024-03-07T01:09:15.340Z,12.52
2024-03-07T01:11:44.697Z,14.75
2024-03-07T01:14:12.510Z,19.95
2024-03-07T01:16:39.028Z,19.45
2024-03-07T01:19:09.614Z,19.65
2024-03-07T01:21:38.714Z,11.52
2024-03-07T01:24:06.551Z,14.90
2024-03-07T01:26:34.765Z,17.92
2024-03-07T01:29:01.472Z,18.77
2024-03-07T01:31:28.048Z,15.73
2024-03-07T01:33:55.740Z,18.63
2024-03-07T01:36:22.744Z,19.80
2024-03-07T01:38:49.366Z,26.95
2024-03-07T01:41:15.945Z,20.63
2024-03-07T01:43:45.440Z,23.00
2024-03-07T01:46:12.321Z,19.95
2024-03-07T01:48:39.569Z,22.90
2024-03-07T01:51:06.673Z,19.52
2024-03-07T01:53:34.717Z,16.73
2024-03-07T01:56:03.543Z,21.75
2024-03-07T01:58:31.883Z,19.45
2024-03-07T02:00:59.396Z,21.02
2024-03-07T02:03:26.189Z,23.27
2024-03-07T02:05:52.863Z,15.30
2024-03-07T02:08:20.803Z,22.88
2024-03-07T02:10:47.649Z,25.20
2024-03-07T02:13:14.213Z,23.50
2024-03-07T02:15:40.653Z,23.15
2024-03-07T02:18:07.923Z,29.02
2024-03-07T02:20:34.549Z,20.65
2024-03-07T02:23:01.070Z,26.33
2024-03-07T02:25:28.515Z,21.40
2024-03-07T02:27:54.995Z,25.58
2024-03-07T02:30:21.410Z,24.27
2024-03-07T02:32:53.137Z,22.77
2024-03-07T02:35:20.161Z,35.88
2024-03-07T02:37:47.254Z,25.45
2024-03-07T02:40:14.993Z,21.38
2024-03-07T02:42:41.462Z,25.98
2024-03-07T02:45:08.370Z,21.08
2024-03-07T02:47:35.003Z,28.77
2024-03-07T02:50:01.578Z,22.88
2024-03-07T02:52:28.142Z,20.27
2024-03-07T02:54:54.699Z,21.58
2024-03-07T02:57:21.582Z,20.85
2024-03-07T02:59:48.166Z,22.38
2024-03-07T03:02:17.882Z,21.70
2024-03-07T03:04:44.384Z,22.05
2024-03-07T03:07:11.184Z,24.67
2024-03-07T03:09:40.955Z,24.80
2024-03-07T03:12:07.776Z,18.20
2024-03-07T03:14:34.339Z,17.88
2024-03-07T03:17:01.162Z,18.58
2024-03-07T03:19:27.654Z,19.75
2024-03-07T03:21:54.100Z,19.75
2024-03-07T03:24:21.330Z,22.48
2024-03-07T03:26:47.855Z,17.35
2024-03-07T03:29:15.147Z,23.75
2024-03-07T03:31:41.600Z,18.23
2024-03-07T03:34:10.807Z,16.08
2024-03-07T03:36:37.261Z,21.92
2024-03-07T03:39:03.786Z,24.40
2024-03-07T03:41:31.292Z,16.25
2024-03-07T03:43:57.814Z,16.80
2024-03-07T03:46:24.668Z,26.23
2024-03-07T03:48:51.972Z,15.10
2024-03-07T03:51:18.481Z,18.13
2024-03-07T03:53:45.269Z,18.20
2024-03-07T03:56:13.349Z,19.83
2024-03-07T03:58:42.839Z,21.45
2024-03-07T04:01:14.060Z,21.73
2024-03-07T04:03:40.727Z,27.35
2024-03-07T04:06:08.161Z,25.63
2024-03-07T04:08:37.752Z,18.20
2024-03-07T04:11:05.701Z,26.88
2024-03-07T04:13:32.839Z,22.00
2024-03-07T04:16:00.211Z,27.80
2024-03-07T04:18:27.674Z,21.10
2024-03-07T04:20:55.386Z,21.75
2024-03-07T04:23:22.060Z,18.50
2024-03-07T04:25:48.566Z,23.85
2024-03-07T04:28:15.042Z,19.88
2024-03-07T04:30:41.525Z,27.10
2024-03-07T04:33:08.179Z,25.48
2024-03-07T04:35:34.916Z,23.48
2024-03-07T04:38:01.376Z,27.67
2024-03-07T04:40:27.788Z,31.65
2024-03-07T04:42:54.285Z,21.98
2024-03-07T04:45:22.295Z,27.67
2024-03-07T04:47:49.730Z,28.10
2024-03-07T04:50:19.429Z,26.98
2024-03-07T04:52:47.528Z,31.00
2024-03-07T04:55:14.499Z,24.35
2024-03-07T04:57:42.398Z,23.17
2024-03-07T05:00:18.236Z,19.63
2024-03-07T05:02:47.677Z,26.25
2024-03-07T05:05:15.193Z,17.70
2024-03-07T05:07:42.591Z,33.20
2024-03-07T05:10:09.920Z,28.05
2024-03-07T05:12:37.766Z,22.70
2024-03-07T05:15:06.060Z,22.60
2024-03-07T05:17:35.646Z,25.80
2024-03-07T05:20:02.579Z,27.60
2024-03-07T05:22:31.356Z,25.50
2024-03-07T05:24:59.617Z,30.42
2024-03-07T05:27:26.130Z,36.95
2024-03-07T05:29:52.681Z,33.10
2024-03-07T05:32:24.142Z,21.58
2024-03-07T05:34:51.027Z,20.33
2024-03-07T05:37:17.573Z,32.88
2024-03-07T05:39:44.037Z,28.20
2024-03-07T05:42:14.961Z,29.80
2024-03-07T05:44:47.483Z,37.13
2024-03-07T05:47:18.037Z,32.00
2024-03-07T05:49:44.898Z,30.98
2024-03-07T05:52:11.379Z,27.55
2024-03-07T05:54:37.899Z,30.50
2024-03-07T05:57:06.790Z,32.10
2024-03-07T05:59:33.770Z,27.42
2024-03-07T06:02:00.639Z,33.38
2024-03-07T06:04:27.191Z,30.20
2024-03-07T06:06:53.828Z,31.17
2024-03-07T06:09:23.440Z,27.60
2024-03-07T06:11:51.000Z,22.65
2024-03-07T06:14:18.331Z,24.42
2024-03-07T06:16:45.034Z,26.38
2024-03-07T06:19:12.451Z,24.85
2024-03-07T06:21:40.908Z,23.58
2024-03-07T06:24:08.658Z,29.73
2024-03-07T06:26:45.934Z,29.63
2024-03-07T06:29:13.828Z,20.83
2024-03-07T06:31:41.660Z,24.63
2024-03-07T06:34:09.393Z,24.70
2024-03-07T06:36:36.623Z,24.52
2024-03-07T06:39:06.890Z,33.00
2024-03-07T06:41:34.323Z,29.58
2024-03-07T06:44:01.538Z,28.67
2024-03-07T06:46:28.202Z,24.25
2024-03-07T06:48:55.089Z,35.22
2024-03-07T06:51:21.711Z,31.48
2024-03-07T06:53:48.313Z,21.05
2024-03-07T06:56:15.856Z,30.33
2024-03-07T06:58:43.360Z,32.53
2024-03-07T07:01:13.325Z,25.27
2024-03-07T07:03:40.238Z,39.05
2024-03-07T07:06:07.176Z,31.75
2024-03-07T07:08:34.246Z,36.10
2024-03-07T07:11:00.825Z,30.02
2024-03-07T07:13:27.393Z,23.17
2024-03-07T07:15:54.648Z,27.13
2024-03-07T07:18:22.738Z,20.52
2024-03-07T07:20:50.342Z,29.63
2024-03-07T07:23:16.890Z,34.63
2024-03-07T07:25:43.363Z,32.60
2024-03-07T07:28:11.004Z,29.40
2024-03-07T07:30:37.758Z,33.47
2024-03-07T07:33:04.834Z,31.65
2024-03-07T07:35:32.329Z,31.35
2024-03-07T07:37:59.041Z,29.45
2024-03-07T07:40:28.181Z,24.13
2024-03-07T07:42:55.280Z,29.80
2024-03-07T07:45:23.482Z,26.98
2024-03-07T07:47:54.663Z,25.50
2024-03-07T07:50:23.283Z,23.25
2024-03-07T07:52:57.702Z,24.58
2024-03-07T07:55:26.631Z,24.17
2024-03-07T07:58:05.097Z,28.38
2024-03-07T08:00:32.386Z,20.50
2024-03-07T08:03:02.237Z,23.58
2024-03-07T08:05:34.249Z,26.23
2024-03-07T08:08:07.603Z,23.45
2024-03-07T08:10:36.212Z,26.67
2024-03-07T08:13:04.130Z,21.90
2024-03-07T08:15:31.880Z,22.75
2024-03-07T08:17:59.554Z,23.10
2024-03-07T08:20:28.022Z,23.65
2024-03-07T08:22:56.454Z,22.17
2024-03-07T08:25:28.210Z,25.83
2024-03-07T08:27:57.345Z,22.65
2024-03-07T08:30:24.278Z,24.60
2024-03-07T08:32:53.360Z,22.67
2024-03-07T08:35:20.512Z,19.52
2024-03-07T08:37:54.244Z,19.38
2024-03-07T08:40:28.551Z,23.38
2024-03-07T08:42:56.844Z,22.20
2024-03-07T08:45:24.139Z,19.70
2024-03-07T08:47:52.509Z,18.98
2024-03-07T08:50:19.704Z,20.67
2024-03-07T08:52:47.265Z,20.20
2024-03-07T08:55:15.505Z,18.58
2024-03-07T08:57:43.149Z,17.80
2024-03-07T09:00:12.260Z,18.08
2024-03-07T09:02:39.714Z,15.68
2024-03-07T09:05:06.977Z,15.68
2024-03-07T09:07:33.840Z,17.70
2024-03-07T09:10:00.367Z,16.17
2024-03-07T09:12:27.384Z,14.68
2024-03-07T09:14:54.488Z,12.02
2024-03-07T09:17:21.708Z,16.17
2024-03-07T09:19:48.211Z,17.25
2024-03-07T09:22:14.673Z,18.05
2024-03-07T09:24:41.183Z,15.80
2024-03-07T09:27:07.839Z,15.68
2024-03-07T09:29:34.399Z,16.13
2024-03-07T09:32:00.862Z,14.68
2024-03-07T09:34:27.441Z,13.57
2024-03-07T09:36:53.925Z,14.52
2024-03-07T09:39:20.475Z,15.35
2024-03-07T09:41:47.019Z,16.55
2024-03-07T09:44:18.697Z,16.13
2024-03-07T09:46:47.448Z,17.42
2024-03-07T09:49:15.016Z,19.27
2024-03-07T09:51:41.534Z,17.77
2024-03-07T09:54:09.218Z,14.43
2024-03-07T09:56:39.056Z,16.55
2024-03-07T09:59:09.099Z,20.27
2024-03-07T10:01:37.337Z,16.55
2024-03-07T10:04:12.726Z,13.43
2024-03-07T10:06:40.620Z,19.70
2024-03-07T10:09:08.566Z,15.38
2024-03-07T10:11:35.915Z,14.48
2024-03-07T10:14:04.176Z,18.35
2024-03-07T10:16:30.649Z,13.65
2024-03-07T10:18:57.192Z,17.95
2024-03-07T10:21:25.178Z,14.13
2024-03-07T10:23:54.303Z,16.88
2024-03-07T10:26:22.398Z,13.85
2024-03-07T10:28:49.249Z,17.70
2024-03-07T10:31:29.555Z,15.93
2024-03-07T10:34:00.489Z,14.82
2024-03-07T10:36:26.950Z,16.20
2024-03-07T10:38:56.436Z,18.23
2024-03-07T10:41:28.732Z,13.52
2024-03-07T10:43:59.236Z,17.73
2024-03-07T10:46:27.644Z,12.75
2024-03-07T10:48:57.765Z,13.63
2024-03-07T10:51:32.268Z,17.70
2024-03-07T10:54:23.280Z,15.35
2024-03-07T10:57:09.733Z,13.35
2024-03-07T10:59:43.040Z,16.73
2024-03-07T11:02:28.440Z,15.30
2024-03-07T11:04:57.067Z,19.10
2024-03-07T11:07:24.734Z,14.10
2024-03-07T11:09:53.322Z,16.05
2024-03-07T11:12:25.375Z,15.10
2024-03-07T11:14:53.410Z,16.98
2024-03-07T11:17:23.230Z,17.02
2024-03-07T11:19:50.864Z,14.98
2024-03-07T11:22:30.880Z,17.17
2024-03-07T11:25:02.716Z,16.73
2024-03-07T11:27:29.273Z,13.40
2024-03-07T11:29:57.571Z,15.98
2024-03-07T11:32:25.040Z,19.30
2024-03-07T11:34:54.940Z,16.08
2024-03-07T11:37:42.138Z,16.13
2024-03-07T11:40:09.579Z,14.82
2024-03-07T11:42:37.043Z,16.33
2024-03-07T11:45:07.563Z,20.00
2024-03-07T11:50:12.527Z,13.90
2024-03-07T11:52:45.150Z,17.23
2024-03-07T11:55:12.097Z,14.20
2024-03-07T11:57:39.746Z,15.95
2024-03-07T12:00:12.483Z,14.75
2024-03-07T12:02:42.168Z,15.85
2024-03-07T12:05:09.163Z,16.80
2024-03-07T12:07:36.025Z,18.92
2024-03-07T12:10:06.800Z,17.15
2024-03-07T12:12:34.199Z,16.48
2024-03-07T12:15:03.147Z,16.67
2024-03-07T12:17:31.361Z,15.40
2024-03-07T12:20:02.682Z,16.77
2024-03-07T12:22:31.680Z,17.73
2024-03-07T12:25:09.351Z,17.30
2024-03-07T12:27:35.876Z,14.85
2024-03-07T12:30:17.359Z,14.20
2024-03-07T12:32:50.848Z,14.90
2024-03-07T12:35:17.807Z,14.32
2024-03-07T12:37:44.445Z,16.48
2024-03-07T12:40:20.531Z,11.32
2024-03-07T12:42:56.100Z,15.32
2024-03-07T12:45:22.786Z,13.90
2024-03-07T12:47:53.890Z,17.77
2024-03-07T12:50:24.435Z,16.67
2024-03-07T12:52:51.834Z,14.57
2024-03-07T12:55:24.658Z,14.57
2024-03-07T12:57:51.319Z,15.43
2024-03-07T13:00:21.840Z,14.48
2024-03-07T13:02:49.390Z,13.85
2024-03-07T13:05:22.295Z,15.85
2024-03-07T13:07:49.735Z,15.13
2024-03-07T13:10:17.269Z,15.95
2024-03-07T13:12:46.464Z,16.05
2024-03-07T13:15:13.685Z,12.40
2024-03-07T13:17:41.211Z,13.35
2024-03-07T13:20:12.904Z,15.32
2024-03-07T13:22:43.951Z,16.50
2024-03-07T13:25:16.986Z,16.17
2024-03-07T13:28:14.432Z,12.10
2024-03-07T13:30:49.535Z,12.95
2024-03-07T13:33:16.582Z,14.43
2024-03-07T13:35:43.231Z,16.98
2024-03-07T13:38:10.676Z,17.52
2024-03-07T13:40:40.329Z,11.93
2024-03-07T13:43:08.069Z,12.68
2024-03-07T13:45:40.098Z,17.55
2024-03-07T13:48:07.850Z,13.60
2024-03-07T13:50:47.731Z,10.95
2024-03-07T13:53:22.468Z,16.33
2024-03-07T13:55:54.680Z,12.82
2024-03-07T13:58:47.094Z,14.32
2024-03-07T14:01:37.527Z,15.85
2024-03-07T14:04:41.754Z,14.57
2024-03-07T14:07:30.950Z,16.83
2024-03-07T14:10:25.888Z,14.63
2024-03-07T14:13:15.100Z,13.20
2024-03-07T14:16:21.676Z,11.98
2024-03-07T14:19:22.352Z,15.27
2024-03-07T14:22:22.730Z,17.50
2024-03-07T14:25:19.549Z,14.27
2024-03-07T14:28:20.266Z,12.25
2024-03-07T14:30:59.826Z,14.88
2024-03-07T14:33:48.565Z,11.35
2024-03-07T14:36:17.028Z,10.35
2024-03-07T14:38:59.024Z,11.65
2024-03-07T14:41:47.996Z,12.40
2024-03-07T14:44:19.261Z,12.23
2024-03-07T14:46:48.388Z,13.40
2024-03-07T14:49:17.529Z,15.48
2024-03-07T14:51:51.819Z,9.98
2024-03-07T14:54:26.232Z,11.13
2024-03-07T14:56:53.660Z,14.35
2024-03-07T14:59:22.064Z,10.40
2024-03-07T15:01:48.993Z,9.50
2024-03-07T15:04:16.268Z,13.32
2024-03-07T15:06:43.723Z,16.00
2024-03-07T15:09:10.784Z,14.35
2024-03-07T15:11:41.537Z,10.77
2024-03-07T15:14:11.898Z,14.00
2024-03-07T15:16:39.973Z,11.30
2024-03-07T15:19:13.566Z,14.88
2024-03-07T15:21:40.772Z,14.70
2024-03-07T15:24:07.600Z,16.02
2024-03-07T15:26:34.995Z,17.10
2024-03-07T15:29:01.961Z,17.85
2024-03-07T15:31:28.899Z,13.30
2024-03-07T15:33:55.797Z,14.57
2024-03-07T15:36:22.976Z,13.70
2024-03-07T15:38:49.921Z,17.38
2024-03-07T15:41:16.512Z,16.05
2024-03-07T15:43:46.186Z,18.35
2024-03-07T15:46:13.848Z,15.50
2024-03-07T15:48:41.485Z,13.40
2024-03-07T15:51:12.947Z,15.40
2024-03-07T15:53:41.729Z,15.65
2024-03-07T15:56:08.580Z,13.98
2024-03-07T15:58:35.384Z,15.73
2024-03-07T16:01:03.099Z,12.70
2024-03-07T16:03:29.779Z,14.77
2024-03-07T16:05:57.886Z,16.05
2024-03-07T16:08:24.989Z,14.48
2024-03-07T16:10:52.363Z,18.05
2024-03-07T16:13:18.899Z,12.85
2024-03-07T16:15:46.436Z,14.77
2024-03-07T16:18:15.466Z,17.33
2024-03-07T16:20:42.630Z,15.55
2024-03-07T16:23:10.017Z,11.38
2024-03-07T16:25:40.509Z,21.20
2024-03-07T16:28:08.756Z,17.52
2024-03-07T16:30:36.712Z,15.25
2024-03-07T16:33:04.282Z,17.30
2024-03-07T16:35:34.746Z,16.20
2024-03-07T16:38:02.107Z,18.23
2024-03-07T16:40:30.067Z,21.45
2024-03-07T16:43:01.759Z,19.38
2024-03-07T16:45:31.358Z,15.45
2024-03-07T16:48:00.914Z,14.32
2024-03-07T16:50:30.496Z,15.88
2024-03-07T16:53:08.641Z,16.17
2024-03-07T16:55:37.905Z,18.27
2024-03-07T17:00:34.487Z,18.45
2024-03-07T17:03:06.713Z,16.65
2024-03-07T17:05:35.500Z,19.48
2024-03-07T17:08:05.628Z,17.52
2024-03-07T17:10:36.060Z,16.08
2024-03-07T17:13:08.144Z,15.35
2024-03-07T17:15:34.693Z,18.95
2024-03-07T17:18:01.583Z,16.77
2024-03-07T17:20:29.821Z,17.92
2024-03-07T17:22:56.751Z,19.50
2024-03-07T17:25:25.408Z,23.15
2024-03-07T17:27:53.225Z,20.33
2024-03-07T17:30:32.458Z,23.75
2024-03-07T17:33:00.190Z,19.25
2024-03-07T17:35:29.992Z,22.30
2024-03-07T17:37:57.591Z,18.98
2024-03-07T17:40:27.664Z,20.80
2024-03-07T17:42:55.479Z,17.83
2024-03-07T17:45:29.010Z,21.05
2024-03-07T17:47:59.203Z,19.58
2024-03-07T17:50:31.492Z,19.92
2024-03-07T17:53:11.342Z,19.17
2024-03-07T17:55:42.437Z,20.98
2024-03-07T17:58:10.148Z,18.63
2024-03-07T18:00:37.328Z,19.00
2024-03-07T18:03:06.215Z,23.23
2024-03-07T18:05:37.826Z,17.02
2024-03-07T18:08:21.329Z,18.08
2024-03-07T18:10:56.654Z,20.42
2024-03-07T18:13:23.285Z,18.15
2024-03-07T18:15:50.286Z,20.83
2024-03-07T18:18:17.644Z,19.05
2024-03-07T18:20:46.246Z,20.42
2024-03-07T18:23:14.694Z,22.92
2024-03-07T18:25:41.951Z,18.45
2024-03-07T18:28:08.780Z,19.02
2024-03-07T18:30:35.461Z,28.27
2024-03-07T18:33:06.283Z,20.73
2024-03-07T18:35:37.503Z,22.17
2024-03-07T18:38:07.399Z,23.83
2024-03-07T18:40:34.962Z,23.00
2024-03-07T18:43:08.977Z,21.60
2024-03-07T18:45:37.357Z,20.60
2024-03-07T18:48:09.230Z,24.42
2024-03-07T18:50:46.361Z,25.05
2024-03-07T18:53:15.571Z,22.42
2024-03-07T18:55:47.174Z,21.20
2024-03-07T18:58:14.052Z,24.67
2024-03-07T19:00:44.931Z,21.40
2024-03-07T19:03:15.187Z,24.20
2024-03-07T19:05:49.849Z,23.45
2024-03-07T19:08:17.052Z,22.75
2024-03-07T19:10:45.002Z,23.35
2024-03-07T19:13:11.929Z,18.85
2024-03-07T19:15:38.610Z,21.92
2024-03-07T19:18:10.403Z,22.50
2024-03-07T19:20:40.304Z,18.20
2024-03-07T19:23:09.748Z,23.48
2024-03-07T19:25:36.731Z,18.40
2024-03-07T19:28:03.412Z,22.35
2024-03-07T19:30:29.965Z,30.63
2024-03-07T19:32:58.314Z,22.88
2024-03-07T19:35:26.417Z,21.83
2024-03-07T19:37:52.912Z,20.60
2024-03-07T19:40:22.544Z,21.45
2024-03-07T19:42:52.736Z,16.55
2024-03-07T19:45:21.147Z,25.15
2024-03-07T19:47:48.837Z,21.23
2024-03-07T19:50:19.204Z,19.67
2024-03-07T19:52:50.420Z,15.82
2024-03-07T19:55:19.972Z,19.00
2024-03-07T19:57:49.270Z,22.10
2024-03-07T20:00:16.943Z,20.27
2024-03-07T20:02:44.880Z,23.23
2024-03-07T20:05:17.314Z,19.30
2024-03-07T20:07:45.477Z,19.73
2024-03-07T20:10:12.017Z,21.40
2024-03-07T20:12:44.705Z,13.73
2024-03-07T20:15:12.739Z,21.50
2024-03-07T20:17:44.526Z,20.77
2024-03-07T20:20:17.743Z,23.15
2024-03-07T20:22:45.967Z,24.35
2024-03-07T20:25:13.839Z,17.38
2024-03-07T20:27:42.009Z,21.05
2024-03-07T20:30:09.482Z,22.48
2024-03-07T20:32:38.787Z,21.33
2024-03-07T20:35:09.096Z,25.60
2024-03-07T20:37:42.145Z,23.20
2024-03-07T20:40:10.674Z,21.65
2024-03-07T20:42:38.861Z,22.85
2024-03-07T20:45:09.085Z,24.65
2024-03-07T20:47:37.402Z,23.95
2024-03-07T20:50:10.541Z,21.73
2024-03-07T20:52:41.605Z,23.73
2024-03-07T20:55:09.019Z,19.33
2024-03-07T20:57:35.613Z,19.58
2024-03-07T21:00:06.145Z,26.40
2024-03-07T21:02:33.656Z,22.23
2024-03-07T21:05:00.872Z,24.33
2024-03-07T21:07:27.349Z,24.92
2024-03-07T21:09:53.810Z,25.92
2024-03-07T21:12:20.507Z,21.25
2024-03-07T21:14:46.999Z,23.50
2024-03-07T21:17:14.954Z,23.20
2024-03-07T21:19:41.418Z,23.27
2024-03-07T21:22:07.836Z,21.80
2024-03-07T21:24:34.255Z,22.92
2024-03-07T21:27:02.420Z,23.48
2024-03-07T21:29:30.716Z,23.10
2024-03-07T21:31:58.040Z,18.02
2024-03-07T21:34:24.506Z,20.52
2024-03-07T21:36:50.983Z,25.20
2024-03-07T21:39:17.434Z,24.08
2024-03-07T21:41:43.878Z,27.63
2024-03-07T21:44:10.407Z,17.23
2024-03-07T21:46:41.082Z,23.85
2024-03-07T21:49:08.507Z,26.13
2024-03-07T21:51:36.510Z,24.58
2024-03-07T21:54:03.034Z,18.63
2024-03-07T21:56:30.089Z,23.45
2024-03-07T21:58:58.885Z,20.95
2024-03-07T22:01:39.557Z,26.00
2024-03-07T22:04:06.533Z,24.23
2024-03-07T22:06:33.817Z,21.85
2024-03-07T22:09:01.601Z,21.23
2024-03-07T22:11:28.547Z,24.83
2024-03-07T22:13:55.134Z,19.60
2024-03-07T22:16:21.620Z,19.60
2024-03-07T22:18:48.295Z,22.67
2024-03-07T22:21:15.085Z,26.08
2024-03-07T22:23:41.886Z,19.58
2024-03-07T22:26:13.130Z,28.83
2024-03-07T22:28:39.828Z,26.38
2024-03-07T22:31:10.490Z,18.05
2024-03-07T22:33:38.198Z,22.63
2024-03-07T22:36:11.416Z,20.90
2024-03-07T22:38:37.993Z,24.70
2024-03-07T22:41:07.711Z,19.15
2024-03-07T22:43:34.375Z,19.95
2024-03-07T22:46:00.875Z,19.73
2024-03-07T22:48:27.465Z,25.15
2024-03-07T22:50:54.017Z,19.42
2024-03-07T22:53:20.564Z,20.05
2024-03-07T22:55:47.951Z,21.65
2024-03-07T22:58:14.555Z,26.48
2024-03-07T23:00:45.644Z,18.73
2024-03-07T23:03:15.584Z,24.15
2024-03-07T23:05:42.623Z,21.63
2024-03-07T23:08:09.160Z,23.08
2024-03-07T23:10:35.708Z,19.77
2024-03-07T23:13:02.776Z,22.17
2024-03-07T23:15:30.070Z,27.65
2024-03-07T23:17:58.758Z,18.90
2024-03-07T23:20:27.327Z,23.45
2024-03-07T23:22:57.044Z,25.63
2024-03-07T23:25:24.583Z,14.77
2024-03-07T23:27:52.776Z,20.42
2024-03-07T23:30:19.447Z,21.67
2024-03-07T23:32:51.052Z,18.73
2024-03-07T23:35:18.500Z,18.52
2024-03-07T23:37:46.141Z,22.38
2024-03-07T23:40:14.549Z,22.48
2024-03-07T23:42:42.360Z,21.83
2024-03-07T23:45:10.521Z,29.08
2024-03-07T23:47:37.643Z,20.13
2024-03-07T23:50:05.387Z,19.88
2024-03-07T23:52:31.876Z,19.60
2024-03-07T23:54:58.395Z,26.92
2024-03-07T23:57:25.021Z,25.02
2024-03-07T23:59:51.565Z,22.02
